KICT/ICT METAR and TAF weather

Enter ICAO airport designator
Station Type Date Time Source
KICT METAR 2022/07/03 13:53 UTC NOAA

KICT 031353Z 13007KT 10SM FEW080 SCT160 BKN230 26/23 A3002 RMK AO2 SLP150 T02560228


Station Type Date Time Source
KICT Decoded METAR 2022/07/03 13:53 UTC NOAA

WICHITA MID-CONTINENT AIRPORT , KS, United States (KICT) 37-39N 97-26W 408M
Jul 03, 2022 - 09:53 AM EDT / 2022.07.03 1353 UTC
Wind: from the SE (130 degrees) at 8 MPH (7 KT):0
Visibility: 10 mile(s):0
Sky conditions: mostly cloudy
Temperature: 78.1 F (25.6 C)
Dew Point: 73.0 F (22.8 C)
Relative Humidity: 84%
Pressure (altimeter): 30.02 in. Hg (1016 hPa)
ob: KICT 031353Z 13007KT 10SM FEW080 SCT160 BKN230 26/23 A3002 RMK AO2 SLP150 T02560228
cycle: 14

Station Type Date Time Source
KICT TAF 2022/07/03 12:22 UTC NOAA

TAF KICT 031120Z 0312/0412 13006KT P6SM VCSH FEW010 BKN070
FM031500 14007KT P6SM BKN120
FM031900 17009KT P6SM SCT180
FM040400 15012KT P6SM FEW250
FM040800 17013KT P6SM FEW250 WS020/21035KT
FM040900 17012KT P6SM FEW250

Example: see airport list